Time;durP1;ratioP1;P1;durP2;ratioP2;P2;SDS_P1;SDS_P2;PMS_P1;PMS_P2;Temp;Humidity;BMP_temperature;BMP_pressure;BME280_temperature;BME280_humidity;BME280_pressure;Samples;Min_cycle;Max_cycle;Signal;HPM_P1;HPM_P2
2022/09/13 00:00:37;;;;;;;11.20;10.30;;;19.30;99.90;;;;;;5054827;28;20025;-80
2022/09/13 00:03:03;;;;;;;11.70;10.77;;;19.30;99.90;;;;;;5055397;28;20473;-80
2022/09/13 00:05:29;;;;;;;11.88;10.70;;;19.30;99.90;;;;;;5055971;28;20472;-79
2022/09/13 00:07:55;;;;;;;12.18;10.82;;;19.40;99.90;;;;;;5056771;28;20036;-80
2022/09/13 00:10:22;;;;;;;11.90;10.75;;;19.40;99.90;;;;;;5054513;28;20028;-80
2022/09/13 00:12:48;;;;;;;12.20;11.20;;;19.40;99.90;;;;;;5055724;28;20380;-79
2022/09/13 00:15:14;;;;;;;11.02;10.02;;;19.40;99.90;;;;;;5055650;28;20071;-79
2022/09/13 00:17:40;;;;;;;11.80;10.77;;;19.40;99.90;;;;;;5054981;28;20472;-79
2022/09/13 00:20:07;;;;;;;11.02;10.15;;;19.40;99.90;;;;;;5055704;28;20025;-79
2022/09/13 00:22:33;;;;;;;15.13;11.23;;;19.40;99.90;;;;;;5054981;28;20052;-79
2022/09/13 00:24:58;;;;;;;11.95;10.93;;;19.40;99.90;;;;;;5054850;28;20187;-79
2022/09/13 00:27:24;;;;;;;11.15;10.25;;;19.40;99.90;;;;;;5055297;28;20043;-80
2022/09/13 00:29:50;;;;;;;12.65;11.52;;;19.40;99.90;;;;;;5055567;28;20028;-80
2022/09/13 00:32:16;;;;;;;12.57;11.40;;;19.40;99.90;;;;;;5055658;28;20055;-80
2022/09/13 00:34:41;;;;;;;11.85;10.90;;;19.50;99.90;;;;;;5054873;28;20021;-80
2022/09/13 00:37:07;;;;;;;10.95;10.05;;;19.50;99.90;;;;;;5055614;28;20032;-80
2022/09/13 00:39:34;;;;;;;12.48;11.40;;;19.40;99.90;;;;;;5056613;28;20477;-80
2022/09/13 00:41:59;;;;;;;12.73;11.68;;;19.40;99.90;;;;;;5056764;28;20024;-80
2022/09/13 00:44:54;;;;;;;13.07;11.90;;;19.50;99.90;;;;;;5057622;28;20376;-80
2022/09/13 00:47:42;;;;;;;11.55;10.52;;;19.40;99.90;;;;;;5057865;28;20020;-80
2022/09/13 00:50:22;;;;;;;11.95;11.05;;;19.40;99.90;;;;;;5054811;28;20037;-80
2022/09/13 00:52:54;;;;;;;11.73;10.52;;;19.40;99.90;;;;;;5056628;28;20036;-80
2022/09/13 00:55:31;;;;;;;12.27;11.20;;;19.40;99.90;;;;;;5060134;28;20025;-80
2022/09/13 00:58:02;;;;;;;13.13;12.02;;;19.40;99.90;;;;;;5060340;28;20079;-80
2022/09/13 01:00:28;;;;;;;15.80;12.93;;;19.40;99.90;;;;;;5059555;28;20025;-79
2022/09/13 01:03:03;;;;;;;13.38;12.18;;;19.40;99.90;;;;;;5062054;28;20090;-80
2022/09/13 01:05:37;;;;;;;12.63;11.43;;;19.40;99.90;;;;;;5059030;28;20037;-80
2022/09/13 01:08:11;;;;;;;12.77;11.68;;;19.40;99.90;;;;;;5058550;28;20035;-80
2022/09/13 01:10:40;;;;;;;15.57;13.98;;;19.40;99.90;;;;;;5059266;28;20029;-80
2022/09/13 01:13:13;;;;;;;15.30;13.70;;;19.40;99.90;;;;;;5062433;28;20369;-81
2022/09/13 01:15:39;;;;;;;15.32;13.85;;;19.30;99.90;;;;;;5062337;28;20025;-80
2022/09/13 01:18:07;;;;;;;14.82;13.27;;;19.30;99.90;;;;;;5064235;28;20376;-80
2022/09/13 01:20:57;;;;;;;15.02;12.85;;;19.30;99.90;;;;;;5061817;28;20051;-80
2022/09/13 01:23:35;;;;;;;18.63;14.17;;;19.30;99.90;;;;;;5076678;28;20053;-80
2022/09/13 01:26:42;;;;;;;14.35;12.77;;;19.20;99.90;;;;;;5081699;28;20013;-78
2022/09/13 01:29:19;;;;;;;14.77;12.60;;;19.20;99.90;;;;;;5081038;28;20001;-79
2022/09/13 01:31:52;;;;;;;17.27;13.45;;;19.10;99.90;;;;;;5080944;28;20037;-79
2022/09/13 01:34:39;;;;;;;20.95;15.25;;;19.10;99.90;;;;;;5081466;28;20041;-79
2022/09/13 01:37:32;;;;;;;19.75;16.02;;;19.10;99.90;;;;;;5081224;28;20052;-80
2022/09/13 01:40:06;;;;;;;17.15;15.48;;;18.90;99.90;;;;;;5072225;28;20017;-80
2022/09/13 01:43:11;;;;;;;16.20;14.65;;;18.80;99.90;;;;;;5063485;28;20495;-80
2022/09/13 01:45:51;;;;;;;14.85;13.50;;;18.80;99.90;;;;;;5060001;28;20040;-80
2022/09/13 01:48:27;;;;;;;15.82;14.32;;;18.70;99.90;;;;;;5060390;28;20028;-80
2022/09/13 01:51:22;;;;;;;16.02;13.85;;;18.70;99.90;;;;;;5060038;28;20033;-80
2022/09/13 01:54:09;;;;;;;15.45;13.90;;;18.70;99.90;;;;;;5060543;28;20036;-80
2022/09/13 01:56:55;;;;;;;16.30;14.60;;;18.70;99.90;;;;;;5059714;28;20104;-80
2022/09/13 01:59:51;;;;;;;14.13;12.93;;;18.60;99.90;;;;;;5060876;28;20036;-79
2022/09/13 02:02:46;;;;;;;16.65;15.07;;;18.60;99.90;;;;;;5058174;28;20056;-81
2022/09/13 02:05:19;;;;;;;16.67;15.15;;;18.70;99.90;;;;;;5059441;28;20024;-80
2022/09/13 02:07:53;;;;;;;16.48;14.55;;;18.60;99.90;;;;;;5064889;28;20407;-81
2022/09/13 02:10:29;;;;;;;17.08;15.30;;;18.60;99.90;;;;;;5070793;28;20051;-79
2022/09/13 02:12:58;;;;;;;16.45;14.93;;;18.60;99.90;;;;;;5069948;28;20380;-82
2022/09/13 02:15:35;;;;;;;15.73;13.95;;;18.70;99.90;;;;;;5066649;28;20104;-81
2022/09/13 02:18:12;;;;;;;16.25;14.75;;;18.60;99.90;;;;;;5057159;28;20025;-81
2022/09/13 02:20:42;;;;;;;15.75;14.15;;;18.60;99.90;;;;;;5058573;28;20456;-80
2022/09/13 02:23:14;;;;;;;14.98;13.68;;;18.60;99.90;;;;;;5058963;28;20497;-80
2022/09/13 02:25:45;;;;;;;20.17;14.48;;;18.60;99.90;;;;;;5060485;28;20048;-80
2022/09/13 02:28:12;;;;;;;;;;;18.60;99.90;;;;;;5061354;28;20037;-80
2022/09/13 02:30:42;;;;;;;16.45;14.80;;;18.60;99.90;;;;;;5059276;28;20343;-79
2022/09/13 02:33:17;;;;;;;20.10;16.05;;;18.60;99.90;;;;;;5059058;28;20029;-80
2022/09/13 02:35:51;;;;;;;16.05;14.55;;;18.60;99.90;;;;;;5060862;28;20059;-79
2022/09/13 02:38:48;;;;;;;14.88;13.57;;;18.60;99.90;;;;;;5062365;28;20502;-79
2022/09/13 02:41:44;;;;;;;15.45;13.70;;;18.60;99.90;;;;;;5062325;28;20021;-79
2022/09/13 02:44:30;;;;;;;16.30;14.63;;;18.60;99.90;;;;;;5068471;28;20423;-79
2022/09/13 02:47:15;;;;;;;15.38;13.95;;;18.60;99.90;;;;;;5069060;28;20477;-80
2022/09/13 02:49:47;;;;;;;15.30;13.95;;;18.60;99.90;;;;;;5063826;28;20036;-79
2022/09/13 02:52:29;;;;;;;15.43;13.93;;;18.60;99.90;;;;;;5065274;28;20029;-79
2022/09/13 02:55:28;;;;;;;16.02;14.23;;;18.60;99.90;;;;;;5065554;28;20028;-79
2022/09/13 02:58:11;;;;;;;16.05;13.25;;;18.60;99.90;;;;;;5044470;28;20116;-80
2022/09/13 03:00:36;;;;;;;16.98;15.40;;;18.60;99.90;;;;;;5060305;28;20032;-79
2022/09/13 03:03:07;;;;;;;15.13;13.63;;;18.60;99.90;;;;;;5060713;28;20032;-79
2022/09/13 03:05:32;;;;;;;15.70;14.30;;;18.60;99.90;;;;;;5060479;28;20086;-80
2022/09/13 03:07:59;;;;;;;14.93;13.48;;;18.60;99.90;;;;;;5061191;28;20415;-80
2022/09/13 03:10:29;;;;;;;14.52;13.18;;;18.60;99.90;;;;;;5063377;28;20096;-80
2022/09/13 03:13:32;;;;;;;14.75;13.38;;;18.60;99.90;;;;;;5061988;28;20021;-79
2022/09/13 03:16:26;;;;;;;17.15;15.35;;;18.60;99.90;;;;;;5059984;28;20036;-79
2022/09/13 03:19:25;;;;;;;14.85;13.38;;;18.60;99.90;;;;;;5060085;28;20100;-79
2022/09/13 03:21:57;;;;;;;15.68;14.07;;;18.50;99.90;;;;;;5062164;28;20355;-80
2022/09/13 03:24:25;;;;;;;16.10;14.30;;;18.50;99.90;;;;;;5063162;28;20401;-80
2022/09/13 03:26:54;;;;;;;16.73;13.15;;;18.60;99.90;;;;;;5064594;28;20027;-80
2022/09/13 03:29:30;;;;;;;15.25;13.63;;;18.60;99.90;;;;;;5063537;28;20028;-79
2022/09/13 03:32:50;;;;;;;18.00;15.68;;;18.60;99.90;;;;;;5065718;28;20036;-79
2022/09/13 03:35:40;;;;;;;16.95;14.40;;;18.60;99.90;;;;;;5037472;28;20029;-79
2022/09/13 03:38:12;;;;;;;14.25;12.82;;;18.60;99.90;;;;;;5070205;28;20036;-80
2022/09/13 03:40:48;;;;;;;14.50;13.20;;;18.60;99.90;;;;;;5067952;28;20056;-79
2022/09/13 03:43:21;;;;;;;14.05;12.55;;;18.60;99.90;;;;;;5068997;28;20032;-79
2022/09/13 03:45:54;;;;;;;15.45;13.88;;;18.60;99.90;;;;;;5064768;28;20025;-80
2022/09/13 03:48:21;;;;;;;14.52;13.05;;;18.60;99.90;;;;;;5061337;28;20029;-79
2022/09/13 03:50:48;;;;;;;14.68;13.45;;;18.60;99.90;;;;;;5062062;28;20032;-79
2022/09/13 03:53:27;;;;;;;15.48;13.98;;;18.60;99.90;;;;;;5057912;28;20191;-80
2022/09/13 03:55:53;;;;;;;16.23;14.73;;;18.50;99.90;;;;;;5054560;28;20087;-80
2022/09/13 03:58:21;;;;;;;17.42;14.80;;;18.60;99.90;;;;;;5054738;28;20025;-79
2022/09/13 04:00:47;;;;;;;16.35;14.90;;;18.50;99.90;;;;;;5054753;28;20033;-79
2022/09/13 04:03:14;;;;;;;15.60;14.00;;;18.50;99.90;;;;;;5053731;28;20429;-79
2022/09/13 04:05:40;;;;;;;15.32;13.95;;;18.50;99.90;;;;;;5054884;28;20025;-79
2022/09/13 04:08:07;;;;;;;16.00;14.43;;;18.50;99.90;;;;;;5054277;28;20155;-80
2022/09/13 04:10:34;;;;;;;15.32;13.93;;;18.50;99.90;;;;;;5053525;28;20029;-80
2022/09/13 04:13:00;;;;;;;17.02;15.43;;;18.40;99.90;;;;;;5055282;28;20036;-80
2022/09/13 04:15:26;;;;;;;18.13;15.60;;;18.40;99.90;;;;;;5055409;28;20350;-80
2022/09/13 04:17:52;;;;;;;15.50;14.00;;;18.40;99.90;;;;;;5054307;28;20469;-80
2022/09/13 04:20:19;;;;;;;16.27;14.70;;;18.30;99.90;;;;;;5054653;28;20025;-79
2022/09/13 04:22:53;;;;;;;18.40;16.30;;;18.40;99.90;;;;;;5054478;28;20083;-79
2022/09/13 04:25:21;;;;;;;22.30;14.93;;;18.30;99.90;;;;;;5053895;28;20036;-79
2022/09/13 04:27:47;;;;;;;16.75;14.98;;;18.30;99.90;;;;;;5053977;28;20056;-80
2022/09/13 04:30:12;;;;;;;19.77;16.00;;;18.20;99.90;;;;;;5054167;28;20464;-79
2022/09/13 04:32:40;;;;;;;17.13;15.48;;;18.20;99.90;;;;;;5054708;28;20047;-79
2022/09/13 04:35:07;;;;;;;15.93;14.50;;;18.20;99.90;;;;;;5055074;28;20372;-79
2022/09/13 04:37:32;;;;;;;15.95;14.30;;;18.10;99.90;;;;;;5054675;28;20029;-80
2022/09/13 04:39:58;;;;;;;17.80;15.02;;;18.10;99.90;;;;;;5055231;28;20017;-79
2022/09/13 04:42:24;;;;;;;16.92;15.43;;;18.10;99.90;;;;;;5054513;28;20063;-81
2022/09/13 04:44:49;;;;;;;16.58;14.93;;;18.00;99.90;;;;;;5054362;28;20405;-80
2022/09/13 04:47:15;;;;;;;16.63;14.88;;;17.90;99.90;;;;;;5054313;28;20457;-80
2022/09/13 04:49:41;;;;;;;16.85;14.93;;;17.90;99.90;;;;;;5054835;28;20039;-79
2022/09/13 04:52:06;;;;;;;19.27;14.75;;;17.90;99.90;;;;;;5053557;28;20063;-79
2022/09/13 04:54:32;;;;;;;16.27;13.85;;;17.90;99.90;;;;;;5054132;28;20017;-80
2022/09/13 04:56:58;;;;;;;18.17;15.70;;;18.00;99.90;;;;;;5054173;28;20032;-81
2022/09/13 04:59:23;;;;;;;18.13;15.75;;;18.00;99.90;;;;;;5053517;28;20102;-80
2022/09/13 05:01:49;;;;;;;18.05;15.95;;;17.90;99.90;;;;;;5053907;28;20033;-80
2022/09/13 05:04:15;;;;;;;18.33;15.48;;;18.00;99.90;;;;;;5053860;28;20484;-80
2022/09/13 05:06:41;;;;;;;21.67;16.23;;;18.10;99.90;;;;;;5052877;28;20021;-80
2022/09/13 05:09:06;;;;;;;19.13;15.48;;;18.10;99.90;;;;;;5053727;28;20108;-81
2022/09/13 05:11:32;;;;;;;21.95;15.60;;;18.30;99.90;;;;;;5053026;28;20119;-79
2022/09/13 05:13:59;;;;;;;19.77;15.20;;;18.10;99.90;;;;;;5053019;28;20049;-79
2022/09/13 05:16:27;;;;;;;20.73;15.88;;;18.20;99.90;;;;;;5053417;28;20389;-79
2022/09/13 05:18:53;;;;;;;16.83;15.10;;;18.20;99.90;;;;;;5053599;28;20095;-79
2022/09/13 05:21:20;;;;;;;15.95;13.90;;;18.20;99.90;;;;;;5053033;28;20029;-80
2022/09/13 05:23:49;;;;;;;16.85;15.15;;;18.20;99.90;;;;;;5053070;28;20037;-80
2022/09/13 05:26:15;;;;;;;15.82;14.20;;;18.20;99.90;;;;;;5053414;28;20496;-78
2022/09/13 05:28:40;;;;;;;18.20;14.93;;;18.20;99.90;;;;;;5053031;28;20021;-80
2022/09/13 05:31:12;;;;;;;22.70;15.30;;;18.20;99.90;;;;;;5053870;28;20051;-79
2022/09/13 05:33:38;;;;;;;18.23;16.13;;;18.20;99.90;;;;;;5052344;28;20021;-79
2022/09/13 05:36:05;;;;;;;25.27;15.57;;;18.30;99.90;;;;;;5053652;28;20033;-80
2022/09/13 05:38:31;;;;;;;17.00;14.75;;;18.30;99.90;;;;;;5056731;28;20017;-80
2022/09/13 05:41:00;;;;;;;20.15;16.35;;;18.30;99.90;;;;;;5057680;28;20086;-79
2022/09/13 05:43:29;;;;;;;18.00;16.20;;;18.30;99.90;;;;;;5059206;28;20045;-80
2022/09/13 05:46:12;;;;;;;16.92;15.13;;;18.40;99.90;;;;;;5061689;28;20047;-80
2022/09/13 05:48:38;;;;;;;16.52;14.82;;;18.30;99.90;;;;;;5058435;28;20025;-79
2022/09/13 05:51:10;;;;;;;18.08;15.05;;;18.40;99.90;;;;;;5059972;28;20128;-79
2022/09/13 05:53:38;;;;;;;17.27;15.38;;;18.40;99.90;;;;;;5057510;28;20095;-79
2022/09/13 05:56:05;;;;;;;17.27;15.35;;;18.30;99.90;;;;;;5060100;28;20574;-79
2022/09/13 05:58:31;;;;;;;17.25;15.50;;;18.30;99.90;;;;;;5061061;28;20064;-79
2022/09/13 06:00:57;;;;;;;17.25;15.50;;;18.40;99.90;;;;;;5075928;28;20074;-78
2022/09/13 06:03:23;;;;;;;17.35;15.65;;;18.30;99.90;;;;;;5073927;28;20024;-80
2022/09/13 06:05:49;;;;;;;16.65;14.90;;;18.30;99.90;;;;;;5075651;28;20028;-81
2022/09/13 06:08:15;;;;;;;18.80;16.50;;;18.30;99.90;;;;;;5076475;28;20029;-79
2022/09/13 06:10:41;;;;;;;22.85;14.70;;;18.30;99.90;;;;;;5077360;28;20033;-80
2022/09/13 06:13:06;;;;;;;15.32;13.82;;;18.40;99.90;;;;;;5077661;28;20025;-79
2022/09/13 06:15:32;;;;;;;19.98;16.40;;;18.30;99.90;;;;;;5065776;28;20381;-80
2022/09/13 06:17:57;;;;;;;18.60;16.70;;;18.40;99.90;;;;;;5055981;28;20358;-79
2022/09/13 06:20:23;;;;;;;22.17;17.80;;;18.40;99.90;;;;;;5056601;28;20079;-80
2022/09/13 06:22:49;;;;;;;18.88;16.30;;;18.50;99.90;;;;;;5055396;28;20053;-80
2022/09/13 06:25:15;;;;;;;25.25;17.88;;;18.40;99.90;;;;;;5056684;28;20029;-79
2022/09/13 06:27:41;;;;;;;22.05;17.30;;;18.50;99.90;;;;;;5056312;28;20052;-80
2022/09/13 06:30:07;;;;;;;21.08;17.65;;;18.50;99.90;;;;;;5055315;28;20468;-80
2022/09/13 06:32:34;;;;;;;24.25;18.17;;;18.60;99.90;;;;;;5055850;28;20043;-81
2022/09/13 06:34:59;;;;;;;22.23;19.15;;;18.60;99.90;;;;;;5056231;28;20381;-81
2022/09/13 06:37:25;;;;;;;22.83;17.65;;;18.60;99.90;;;;;;5055134;28;20025;-81
2022/09/13 06:39:50;;;;;;;22.05;18.05;;;18.70;99.90;;;;;;5055913;28;20024;-80
2022/09/13 06:42:16;;;;;;;19.88;17.45;;;18.80;99.90;;;;;;5055857;28;20112;-80
2022/09/13 06:44:42;;;;;;;18.90;16.92;;;18.80;99.90;;;;;;5055934;28;20032;-80
2022/09/13 06:47:08;;;;;;;24.17;18.75;;;18.90;99.90;;;;;;5055537;28;20420;-80
2022/09/13 06:49:37;;;;;;;24.52;19.35;;;18.90;99.90;;;;;;5055772;28;20021;-80
2022/09/13 06:52:03;;;;;;;24.33;19.42;;;19.00;99.90;;;;;;5056064;28;20033;-80
2022/09/13 06:54:28;;;;;;;21.90;19.40;;;19.10;99.90;;;;;;5057177;28;20044;-80
2022/09/13 06:56:56;;;;;;;23.23;19.90;;;19.20;99.90;;;;;;5057540;28;20044;-80
2022/09/13 06:59:21;;;;;;;26.73;20.88;;;19.30;99.90;;;;;;5058068;28;20024;-80
2022/09/13 07:01:47;;;;;;;25.58;20.90;;;19.40;99.90;;;;;;5059114;28;20024;-79
2022/09/13 07:04:15;;;;;;;25.10;21.38;;;19.60;99.90;;;;;;5055384;28;20032;-79
2022/09/13 07:06:46;;;;;;;32.97;22.85;;;19.70;99.90;;;;;;5055577;28;20025;-80
2022/09/13 07:09:16;;;;;;;26.85;20.63;;;19.80;99.90;;;;;;5056390;28;20028;-79
2022/09/13 07:11:42;;;;;;;31.93;21.93;;;19.90;99.90;;;;;;5055610;28;20362;-80
2022/09/13 07:14:11;;;;;;;23.83;20.10;;;19.90;99.90;;;;;;5055012;28;20017;-80
2022/09/13 07:16:37;;;;;;;17.90;16.13;;;20.00;99.90;;;;;;5055804;28;20037;-80
2022/09/13 07:19:06;;;;;;;17.85;15.80;;;20.10;99.90;;;;;;5055078;28;20473;-79
2022/09/13 07:21:33;;;;;;;18.55;16.08;;;20.10;99.90;;;;;;5055782;28;20040;-81
2022/09/13 07:23:58;;;;;;;21.75;16.45;;;20.20;99.90;;;;;;5054995;28;20045;-80
2022/09/13 07:26:26;;;;;;;16.58;14.80;;;20.20;99.90;;;;;;5054932;28;20140;-81
2022/09/13 07:28:54;;;;;;;18.95;14.60;;;20.30;99.90;;;;;;5056611;28;20025;-80
2022/09/13 07:31:25;;;;;;;14.85;13.30;;;20.40;99.90;;;;;;5055990;28;20037;-79
2022/09/13 07:34:02;;;;;;;14.27;12.63;;;20.40;99.90;;;;;;5055569;28;20484;-81
2022/09/13 07:36:29;;;;;;;13.80;12.38;;;20.50;99.90;;;;;;5056585;28;20029;-81
2022/09/13 07:38:55;;;;;;;17.15;12.27;;;20.40;99.90;;;;;;5057268;28;20086;-80
2022/09/13 07:41:23;;;;;;;15.20;11.95;;;20.40;99.90;;;;;;5055966;28;20024;-80
2022/09/13 07:43:50;;;;;;;11.18;10.10;;;20.40;99.90;;;;;;5056676;28;20025;-80
2022/09/13 07:46:21;;;;;;;12.50;10.43;;;20.40;99.90;;;;;;5056426;28;20112;-80
2022/09/13 07:48:48;;;;;;;12.13;10.05;;;20.40;99.90;;;;;;5056234;28;20389;-80
2022/09/13 07:51:27;;;;;;;11.57;7.93;;;20.40;99.90;;;;;;5055809;28;20607;-81
2022/09/13 07:53:57;;;;;;;9.10;7.93;;;20.40;99.90;;;;;;5057874;28;20040;-80
2022/09/13 07:56:29;;;;;;;7.15;5.85;;;20.50;99.90;;;;;;5055902;28;20111;-81
2022/09/13 07:58:55;;;;;;;11.50;7.60;;;20.50;99.90;;;;;;5055914;28;20087;-81
2022/09/13 08:01:37;;;;;;;16.52;8.20;;;20.60;99.90;;;;;;5055476;28;20043;-81
2022/09/13 08:04:08;;;;;;;12.13;8.85;;;20.60;99.90;;;;;;5055101;28;20108;-80
2022/09/13 08:06:36;;;;;;;10.20;9.15;;;20.70;99.90;;;;;;5055944;28;20071;-81
2022/09/13 08:09:03;;;;;;;11.57;9.48;;;20.70;99.90;;;;;;5054323;28;20104;-80
2022/09/13 08:11:32;;;;;;;11.68;10.63;;;20.70;99.90;;;;;;5054960;28;20036;-80
2022/09/13 08:13:59;;;;;;;13.63;11.68;;;20.70;99.90;;;;;;5055003;28;20074;-81
2022/09/13 08:16:27;;;;;;;20.77;13.35;;;20.90;99.90;;;;;;5054557;28;20392;-80
2022/09/13 08:18:55;;;;;;;13.77;12.55;;;20.70;99.90;;;;;;5055703;28;20029;-80
2022/09/13 08:21:22;;;;;;;13.50;12.30;;;20.80;99.90;;;;;;5055551;28;20520;-80
2022/09/13 08:23:52;;;;;;;13.57;12.13;;;20.80;99.90;;;;;;5055221;28;20047;-80
2022/09/13 08:26:18;;;;;;;10.02;9.00;;;20.80;99.90;;;;;;5055949;28;20478;-80
2022/09/13 08:28:43;;;;;;;14.63;11.15;;;20.80;99.90;;;;;;5056310;28;20052;-80
2022/09/13 08:31:16;;;;;;;13.30;11.52;;;20.80;99.90;;;;;;5054656;28;20401;-80
2022/09/13 08:33:49;;;;;;;14.13;12.73;;;20.80;99.90;;;;;;5056315;28;20067;-79
2022/09/13 08:36:15;;;;;;;36.05;15.63;;;20.80;99.90;;;;;;5062360;28;20029;-80
2022/09/13 08:38:49;;;;;;;13.30;11.02;;;20.80;99.90;;;;;;5057932;28;20025;-81
2022/09/13 08:41:47;;;;;;;15.13;11.35;;;20.80;99.90;;;;;;5057048;28;20028;-81
2022/09/13 08:44:31;;;;;;;11.77;10.68;;;20.90;99.90;;;;;;5056123;28;20029;-80
2022/09/13 08:47:10;;;;;;;14.02;12.40;;;21.00;99.90;;;;;;5055991;28;20018;-80
2022/09/13 08:49:41;;;;;;;12.88;9.88;;;21.10;99.90;;;;;;5055519;28;20060;-80
2022/09/13 08:52:29;;;;;;;11.40;10.20;;;21.20;99.90;;;;;;5058868;28;20440;-79
2022/09/13 08:54:56;;;;;;;11.77;10.60;;;21.30;99.90;;;;;;5059992;28;20163;-81
2022/09/13 08:57:47;;;;;;;11.52;9.57;;;21.40;99.90;;;;;;5057385;28;20032;-79
2022/09/13 09:00:19;;;;;;;12.07;8.45;;;21.40;99.90;;;;;;5054946;28;20469;-81
2022/09/13 09:02:54;;;;;;;14.02;8.88;;;21.60;99.90;;;;;;5057227;28;20362;-80
2022/09/13 09:05:23;;;;;;;9.18;8.32;;;21.70;99.90;;;;;;5054967;28;20025;-80
2022/09/13 09:08:13;;;;;;;10.90;7.43;;;21.80;99.90;;;;;;5056280;28;20021;-80
2022/09/13 09:10:45;;;;;;;7.95;7.15;;;21.90;99.90;;;;;;5056621;28;20033;-81
2022/09/13 09:13:15;;;;;;;8.00;7.20;;;21.90;99.90;;;;;;5056888;28;20025;-81
2022/09/13 09:15:51;;;;;;;7.97;7.10;;;22.00;99.90;;;;;;5058879;28;20048;-81
2022/09/13 09:18:31;;;;;;;9.30;6.90;;;22.00;99.90;;;;;;5059768;28;20025;-80
2022/09/13 09:20:59;;;;;;;9.25;8.35;;;22.00;99.90;;;;;;5059189;28;20082;-80
2022/09/13 09:23:28;;;;;;;9.55;6.82;;;22.10;99.90;;;;;;5058607;28;20056;-80
2022/09/13 09:26:18;;;;;;;4.03;3.67;;;22.10;99.90;;;;;;5057344;28;20449;-80
2022/09/13 09:28:56;;;;;;;5.78;3.60;;;22.10;99.90;;;;;;5058124;28;20021;-81
2022/09/13 09:31:21;;;;;;;4.22;3.67;;;22.00;99.90;;;;;;5058194;28;20451;-80
2022/09/13 09:33:59;;;;;;;4.68;3.63;;;21.90;99.90;;;;;;5057884;28;20032;-80
2022/09/13 09:36:49;;;;;;;6.60;4.00;;;21.80;99.90;;;;;;5059473;28;20067;-80
2022/09/13 09:39:15;;;;;;;5.43;3.58;;;22.00;99.90;;;;;;5060256;28;20035;-81
2022/09/13 09:41:42;;;;;;;4.38;3.17;;;22.20;99.90;;;;;;5057636;28;20056;-81
2022/09/13 09:44:21;;;;;;;4.65;2.58;;;22.30;99.90;;;;;;5058887;28;20074;-81
2022/09/13 09:46:55;;;;;;;3.20;2.25;;;22.40;99.90;;;;;;5060418;28;20025;-80
2022/09/13 09:50:09;;;;;;;5.22;2.10;;;22.40;99.90;;;;;;5058726;28;20025;-81
2022/09/13 09:52:38;;;;;;;4.63;2.20;;;22.30;99.90;;;;;;5057832;28;20071;-81
2022/09/13 09:55:25;;;;;;;4.18;2.60;;;22.30;99.90;;;;;;5057801;28;20029;-79
2022/09/13 09:58:05;;;;;;;4.43;2.15;;;22.50;99.90;;;;;;5056056;28;20465;-81
2022/09/13 10:00:38;;;;;;;2.28;1.92;;;22.50;99.90;;;;;;5060203;28;20116;-80
2022/09/13 10:03:06;;;;;;;3.03;1.60;;;22.50;99.90;;;;;;5058797;28;20098;-79
2022/09/13 10:05:34;;;;;;;2.75;1.50;;;22.40;99.90;;;;;;5058669;28;20023;-80
2022/09/13 10:08:07;;;;;;;5.50;1.63;;;22.60;99.90;;;;;;5062872;28;20541;-81
2022/09/13 10:10:42;;;;;;;2.88;1.45;;;22.60;99.90;;;;;;5058394;28;20021;-80
2022/09/13 10:13:20;;;;;;;2.15;1.42;;;22.70;99.90;;;;;;5059091;28;20025;-81
2022/09/13 10:15:57;;;;;;;4.07;1.90;;;23.00;99.90;;;;;;5058758;28;20366;-81
2022/09/13 10:18:28;;;;;;;2.00;1.60;;;23.20;99.90;;;;;;5058859;28;20483;-80
2022/09/13 10:21:16;;;;;;;3.90;1.50;;;23.30;99.90;;;;;;5060469;28;20046;-81
2022/09/13 10:23:42;;;;;;;2.22;1.25;;;23.50;99.90;;;;;;5061116;28;20049;-81
2022/09/13 10:26:16;;;;;;;2.03;1.00;;;23.80;99.90;;;;;;5064317;28;20021;-81
2022/09/13 10:29:13;;;;;;;3.55;1.40;;;23.90;99.90;;;;;;5074147;28;20025;-79
2022/09/13 10:31:42;;;;;;;7.30;1.23;;;23.90;99.90;;;;;;5074614;28;20047;-82
2022/09/13 10:34:21;;;;;;;2.00;1.33;;;23.80;99.90;;;;;;5074122;28;20024;-80
2022/09/13 10:37:02;;;;;;;2.85;1.30;;;23.70;99.90;;;;;;5074673;28;20020;-80
2022/09/13 10:39:33;;;;;;;2.15;1.20;;;23.50;99.90;;;;;;5077512;28;20419;-80
2022/09/13 10:42:05;;;;;;;6.25;1.80;;;23.40;99.90;;;;;;5075427;28;20029;-81
2022/09/13 10:44:42;;;;;;;5.15;1.77;;;23.00;99.90;;;;;;5068188;28;20032;-80
2022/09/13 10:47:21;;;;;;;2.30;1.42;;;22.70;99.90;;;;;;5058994;28;20119;-81
2022/09/13 10:49:53;;;;;;;1.90;1.42;;;22.60;99.90;;;;;;5058132;28;20045;-81
2022/09/13 10:52:34;;;;;;;7.10;1.92;;;22.70;99.90;;;;;;5058448;28;20044;-80
2022/09/13 10:55:18;;;;;;;4.03;1.75;;;23.00;99.90;;;;;;5058269;28;20052;-81
2022/09/13 10:58:02;;;;;;;3.30;1.50;;;23.20;99.90;;;;;;5057648;28;20436;-81
2022/09/13 11:00:43;;;;;;;3.70;1.40;;;23.20;99.90;;;;;;5058812;28;20017;-81
2022/09/13 11:03:29;;;;;;;5.13;1.00;;;23.20;99.90;;;;;;5057303;28;20079;-82
2022/09/13 11:06:09;;;;;;;1.13;1.02;;;23.40;99.90;;;;;;5057502;28;20129;-82
2022/09/13 11:08:45;;;;;;;;;;;23.60;99.90;;;;;;5057920;28;20029;-81
2022/09/13 11:11:33;;;;;;;3.67;1.33;;;23.50;99.90;;;;;;5055268;28;20376;-81
2022/09/13 11:14:38;;;;;;;4.00;1.42;;;23.50;99.90;;;;;;5051984;28;20535;-81
2022/09/13 11:17:19;;;;;;;3.55;1.73;;;23.30;99.90;;;;;;5055986;28;20063;-82
2022/09/13 11:20:26;;;;;;;4.40;1.70;;;23.00;99.90;;;;;;5054748;28;20103;-80
2022/09/13 11:23:16;;;;;;;3.55;1.40;;;22.70;99.90;;;;;;5055808;28;20045;-81
2022/09/13 11:25:50;;;;;;;;;;;22.60;99.90;;;;;;5055512;28;20415;-80
2022/09/13 11:28:43;;;;;;;4.35;1.65;;;22.60;99.90;;;;;;5055288;28;20002;-80
2022/09/13 11:31:21;;;;;;;5.13;1.65;;;22.70;99.90;;;;;;5057907;28;20025;-81
2022/09/13 11:34:20;;;;;;;3.72;1.60;;;22.60;99.90;;;;;;5058028;28;20025;-80
2022/09/13 11:37:02;;;;;;;3.85;1.30;;;22.40;99.90;;;;;;5060283;28;20025;-81
2022/09/13 11:39:51;;;;;;;3.40;1.50;;;22.30;99.90;;;;;;5054345;28;20365;-81
2022/09/13 11:42:28;;;;;;;7.38;1.58;;;22.40;99.90;;;;;;5055135;28;20044;-80
2022/09/13 11:45:02;;;;;;;4.97;1.23;;;22.30;99.90;;;;;;5055186;28;20453;-80
2022/09/13 11:47:55;;;;;;;3.60;1.48;;;22.40;99.90;;;;;;5054238;28;20032;-80
2022/09/13 11:50:52;;;;;;;3.58;1.23;;;22.70;99.90;;;;;;5055026;28;20078;-81
2022/09/13 11:53:53;;;;;;;2.20;1.65;;;22.90;99.90;;;;;;5054510;28;20082;-81
2022/09/13 11:56:28;;;;;;;2.75;1.27;;;23.10;99.90;;;;;;5056494;28;20024;-82
2022/09/13 11:58:59;;;;;;;2.70;1.08;;;23.00;99.90;;;;;;5055889;28;20052;-82
2022/09/13 12:01:41;;;;;;;2.78;1.27;;;22.90;99.90;;;;;;5054732;28;20028;-82
2022/09/13 12:04:17;;;;;;;3.03;1.30;;;22.60;99.90;;;;;;5056236;28;20029;-81
2022/09/13 12:06:48;;;;;;;5.10;1.42;;;22.60;99.90;;;;;;5055677;28;20051;-81
2022/09/13 12:09:19;;;;;;;1.65;1.17;;;22.70;99.90;;;;;;5055024;28;20078;-80
2022/09/13 12:11:51;;;;;;;3.47;1.42;;;23.00;99.90;;;;;;5055483;28;20037;-82
2022/09/13 12:14:22;;;;;;;2.15;1.20;;;23.00;99.90;;;;;;5055609;28;20017;-80
2022/09/13 12:16:56;;;;;;;1.75;1.15;;;23.30;99.90;;;;;;5055041;28;20058;-81
2022/09/13 12:19:35;;;;;;;2.97;1.00;;;23.50;99.90;;;;;;5054763;28;20032;-80
2022/09/13 12:22:02;;;;;;;1.85;1.02;;;23.60;99.90;;;;;;5053903;28;20554;-81
2022/09/13 12:25:12;;;;;;;1.42;1.20;;;23.60;99.90;;;;;;5055769;28;20051;-81
2022/09/13 12:27:54;;;;;;;1.63;1.30;;;23.70;99.90;;;;;;5051062;28;20507;-81
2022/09/13 12:30:22;;;;;;;1.83;1.08;;;23.80;99.90;;;;;;5055691;28;20035;-80
2022/09/13 12:32:48;;;;;;;3.03;1.00;;;23.80;99.90;;;;;;5056807;28;20132;-80
2022/09/13 12:35:34;;;;;;;4.20;1.90;;;24.00;99.90;;;;;;5055573;28;20037;-82
2022/09/13 12:38:27;;;;;;;1.45;0.93;;;23.80;99.90;;;;;;5055007;28;20033;-81
2022/09/13 12:41:04;;;;;;;6.47;1.30;;;23.60;99.90;;;;;;5055225;28;20017;-80
2022/09/13 12:43:52;;;;;;;4.63;1.38;;;23.60;99.90;;;;;;5054275;28;20070;-81
2022/09/13 12:46:31;;;;;;;1.83;0.80;;;23.50;99.90;;;;;;5054857;28;20103;-81
2022/09/13 12:49:23;;;;;;;3.15;1.17;;;23.60;99.90;;;;;;5053974;28;20483;-81
2022/09/13 12:52:11;;;;;;;1.05;0.70;;;23.90;99.90;;;;;;5045305;28;20094;-81
2022/09/13 12:54:58;;;;;;;4.53;1.00;;;24.00;99.90;;;;;;5054998;28;20028;-80
2022/09/13 12:57:42;;;;;;;3.55;0.85;;;24.00;99.90;;;;;;5053512;28;20037;-80
2022/09/13 13:00:25;;;;;;;1.45;0.82;;;24.20;99.90;;;;;;5054890;28;20022;-82
2022/09/13 13:03:09;;;;;;;5.60;1.20;;;24.30;99.90;;;;;;5055926;28;20485;-81
2022/09/13 13:05:38;;;;;;;3.90;1.05;;;24.30;99.60;;;;;;5055673;28;20029;-81
2022/09/13 13:08:23;;;;;;;1.55;0.77;;;24.20;99.50;;;;;;5055551;28;20033;-83